sensor_id;sensor_type;location;lat;lon;timestamp;temperature;humidity
20690;DHT22;10504;48.762;8.996;2022-09-09T00:01:20;15.20;99.90
20690;DHT22;10504;48.762;8.996;2022-09-09T00:04:26;15.10;99.90
20690;DHT22;10504;48.762;8.996;2022-09-09T00:09:47;15.10;99.90
20690;DHT22;10504;48.762;8.996;2022-09-09T00:12:36;15.10;99.90
20690;DHT22;10504;48.762;8.996;2022-09-09T00:15:11;15.10;99.90
20690;DHT22;10504;48.762;8.996;2022-09-09T00:17:39;15.10;99.90
20690;DHT22;10504;48.762;8.996;2022-09-09T00:22:58;15.10;99.90
20690;DHT22;10504;48.762;8.996;2022-09-09T00:28:50;15.00;99.90
20690;DHT22;10504;48.762;8.996;2022-09-09T00:31:23;15.00;99.90
20690;DHT22;10504;48.762;8.996;2022-09-09T00:33:50;15.00;99.90
20690;DHT22;10504;48.762;8.996;2022-09-09T00:36:21;15.10;99.90
20690;DHT22;10504;48.762;8.996;2022-09-09T00:38:52;15.10;99.90
20690;DHT22;10504;48.762;8.996;2022-09-09T00:41:53;15.10;99.90
20690;DHT22;10504;48.762;8.996;2022-09-09T00:44:30;15.20;99.90
20690;DHT22;10504;48.762;8.996;2022-09-09T00:57:51;15.30;99.90
20690;DHT22;10504;48.762;8.996;2022-09-09T01:02:54;15.30;99.90
20690;DHT22;10504;48.762;8.996;2022-09-09T01:07:58;15.30;99.90
20690;DHT22;10504;48.762;8.996;2022-09-09T01:10:44;15.30;99.90
20690;DHT22;10504;48.762;8.996;2022-09-09T01:13:35;15.30;99.90
20690;DHT22;10504;48.762;8.996;2022-09-09T01:16:03;15.40;99.90
20690;DHT22;10504;48.762;8.996;2022-09-09T01:18:34;15.30;99.90
20690;DHT22;10504;48.762;8.996;2022-09-09T01:21:26;15.30;99.90
20690;DHT22;10504;48.762;8.996;2022-09-09T01:26:32;15.30;99.90
20690;DHT22;10504;48.762;8.996;2022-09-09T01:28:59;15.30;99.90
20690;DHT22;10504;48.762;8.996;2022-09-09T01:34:09;15.20;99.90
20690;DHT22;10504;48.762;8.996;2022-09-09T01:36:42;15.20;99.90
20690;DHT22;10504;48.762;8.996;2022-09-09T01:39:09;15.20;99.90
20690;DHT22;10504;48.762;8.996;2022-09-09T01:41:35;15.20;99.90
20690;DHT22;10504;48.762;8.996;2022-09-09T01:44:02;15.20;99.90
20690;DHT22;10504;48.762;8.996;2022-09-09T01:46:28;15.20;99.90
20690;DHT22;10504;48.762;8.996;2022-09-09T01:48:55;15.20;99.90
20690;DHT22;10504;48.762;8.996;2022-09-09T01:51:21;15.10;99.90
20690;DHT22;10504;48.762;8.996;2022-09-09T01:53:47;15.10;99.90
20690;DHT22;10504;48.762;8.996;2022-09-09T01:56:40;15.10;99.90
20690;DHT22;10504;48.762;8.996;2022-09-09T01:59:37;15.10;99.90
20690;DHT22;10504;48.762;8.996;2022-09-09T02:04:57;15.00;99.90
20690;DHT22;10504;48.762;8.996;2022-09-09T02:07:40;15.00;99.90
20690;DHT22;10504;48.762;8.996;2022-09-09T02:13:12;14.90;99.90
20690;DHT22;10504;48.762;8.996;2022-09-09T02:18:11;14.90;99.90
20690;DHT22;10504;48.762;8.996;2022-09-09T02:20:39;14.90;99.90
20690;DHT22;10504;48.762;8.996;2022-09-09T02:23:06;14.80;99.90
20690;DHT22;10504;48.762;8.996;2022-09-09T02:25:35;14.80;99.90
20690;DHT22;10504;48.762;8.996;2022-09-09T02:28:03;14.70;99.90
20690;DHT22;10504;48.762;8.996;2022-09-09T02:30:31;14.70;99.90
20690;DHT22;10504;48.762;8.996;2022-09-09T02:32:58;14.60;99.90
20690;DHT22;10504;48.762;8.996;2022-09-09T02:35:28;14.60;99.90
20690;DHT22;10504;48.762;8.996;2022-09-09T02:37:58;14.50;99.90
20690;DHT22;10504;48.762;8.996;2022-09-09T02:40:25;14.50;99.90
20690;DHT22;10504;48.762;8.996;2022-09-09T02:42:50;14.50;99.90
20690;DHT22;10504;48.762;8.996;2022-09-09T02:45:19;14.50;99.90
20690;DHT22;10504;48.762;8.996;2022-09-09T02:47:57;14.50;99.90
20690;DHT22;10504;48.762;8.996;2022-09-09T02:50:34;14.50;99.90
20690;DHT22;10504;48.762;8.996;2022-09-09T02:55:57;14.50;99.90
20690;DHT22;10504;48.762;8.996;2022-09-09T02:58:23;14.50;99.90
20690;DHT22;10504;48.762;8.996;2022-09-09T03:00:51;14.50;99.90
20690;DHT22;10504;48.762;8.996;2022-09-09T03:03:18;14.50;99.90
20690;DHT22;10504;48.762;8.996;2022-09-09T03:05:45;14.50;99.90
20690;DHT22;10504;48.762;8.996;2022-09-09T03:08:11;14.50;99.90
20690;DHT22;10504;48.762;8.996;2022-09-09T03:10:38;14.50;99.90
20690;DHT22;10504;48.762;8.996;2022-09-09T03:13:05;14.50;99.90
20690;DHT22;10504;48.762;8.996;2022-09-09T03:15:32;14.40;99.90
20690;DHT22;10504;48.762;8.996;2022-09-09T03:17:58;14.40;99.90
20690;DHT22;10504;48.762;8.996;2022-09-09T03:20:25;14.40;99.90
20690;DHT22;10504;48.762;8.996;2022-09-09T03:22:52;14.50;99.90
20690;DHT22;10504;48.762;8.996;2022-09-09T03:25:18;14.50;99.90
20690;DHT22;10504;48.762;8.996;2022-09-09T03:27:44;14.40;99.90
20690;DHT22;10504;48.762;8.996;2022-09-09T03:30:10;14.40;99.90
20690;DHT22;10504;48.762;8.996;2022-09-09T03:32:36;14.40;99.90
20690;DHT22;10504;48.762;8.996;2022-09-09T03:35:02;14.40;99.90
20690;DHT22;10504;48.762;8.996;2022-09-09T03:37:28;14.30;99.90
20690;DHT22;10504;48.762;8.996;2022-09-09T03:39:54;14.30;99.90
20690;DHT22;10504;48.762;8.996;2022-09-09T03:42:20;14.30;99.90
20690;DHT22;10504;48.762;8.996;2022-09-09T03:44:46;14.30;99.90
20690;DHT22;10504;48.762;8.996;2022-09-09T03:47:20;14.30;99.90
20690;DHT22;10504;48.762;8.996;2022-09-09T03:49:47;14.30;99.90
20690;DHT22;10504;48.762;8.996;2022-09-09T03:52:14;14.30;99.90
20690;DHT22;10504;48.762;8.996;2022-09-09T03:54:40;14.30;99.90
20690;DHT22;10504;48.762;8.996;2022-09-09T03:57:08;14.30;99.90
20690;DHT22;10504;48.762;8.996;2022-09-09T03:59:35;14.30;99.90
20690;DHT22;10504;48.762;8.996;2022-09-09T04:02:00;14.30;99.90
20690;DHT22;10504;48.762;8.996;2022-09-09T04:04:26;14.30;99.90
20690;DHT22;10504;48.762;8.996;2022-09-09T04:06:53;14.40;99.90
20690;DHT22;10504;48.762;8.996;2022-09-09T04:09:19;14.40;99.90
20690;DHT22;10504;48.762;8.996;2022-09-09T04:11:45;14.40;99.90
20690;DHT22;10504;48.762;8.996;2022-09-09T04:14:11;14.40;99.90
20690;DHT22;10504;48.762;8.996;2022-09-09T04:16:38;14.40;99.90
20690;DHT22;10504;48.762;8.996;2022-09-09T04:19:04;14.40;99.90
20690;DHT22;10504;48.762;8.996;2022-09-09T04:21:30;14.40;99.90
20690;DHT22;10504;48.762;8.996;2022-09-09T04:23:56;14.40;99.90
20690;DHT22;10504;48.762;8.996;2022-09-09T04:26:22;14.50;99.90
20690;DHT22;10504;48.762;8.996;2022-09-09T04:28:48;14.50;99.90
20690;DHT22;10504;48.762;8.996;2022-09-09T04:31:19;14.50;99.90
20690;DHT22;10504;48.762;8.996;2022-09-09T04:33:46;14.50;99.90
20690;DHT22;10504;48.762;8.996;2022-09-09T04:36:12;14.50;99.90
20690;DHT22;10504;48.762;8.996;2022-09-09T04:38:38;14.50;99.90
20690;DHT22;10504;48.762;8.996;2022-09-09T04:41:05;14.40;99.90
20690;DHT22;10504;48.762;8.996;2022-09-09T04:43:31;14.40;99.90
20690;DHT22;10504;48.762;8.996;2022-09-09T04:45:57;14.40;99.90
20690;DHT22;10504;48.762;8.996;2022-09-09T04:48:23;14.40;99.90
20690;DHT22;10504;48.762;8.996;2022-09-09T04:51:01;14.40;99.90
20690;DHT22;10504;48.762;8.996;2022-09-09T04:53:27;14.40;99.90
20690;DHT22;10504;48.762;8.996;2022-09-09T04:56:02;14.40;99.90
20690;DHT22;10504;48.762;8.996;2022-09-09T04:58:28;14.40;99.90
20690;DHT22;10504;48.762;8.996;2022-09-09T05:00:54;14.40;99.90
20690;DHT22;10504;48.762;8.996;2022-09-09T05:03:19;14.50;99.90
20690;DHT22;10504;48.762;8.996;2022-09-09T05:05:45;14.40;99.90
20690;DHT22;10504;48.762;8.996;2022-09-09T05:08:11;14.40;99.90
20690;DHT22;10504;48.762;8.996;2022-09-09T05:10:38;14.40;99.90
20690;DHT22;10504;48.762;8.996;2022-09-09T05:13:04;14.50;99.90
20690;DHT22;10504;48.762;8.996;2022-09-09T05:15:30;14.50;99.90
20690;DHT22;10504;48.762;8.996;2022-09-09T05:17:58;14.50;99.90
20690;DHT22;10504;48.762;8.996;2022-09-09T05:20:24;14.50;99.90
20690;DHT22;10504;48.762;8.996;2022-09-09T05:22:55;14.50;99.90
20690;DHT22;10504;48.762;8.996;2022-09-09T05:25:22;14.50;99.90
20690;DHT22;10504;48.762;8.996;2022-09-09T05:27:49;14.50;99.90
20690;DHT22;10504;48.762;8.996;2022-09-09T05:30:15;14.50;99.90
20690;DHT22;10504;48.762;8.996;2022-09-09T05:32:42;14.60;99.90
20690;DHT22;10504;48.762;8.996;2022-09-09T05:35:08;14.50;99.90
20690;DHT22;10504;48.762;8.996;2022-09-09T05:37:34;14.60;99.90
20690;DHT22;10504;48.762;8.996;2022-09-09T05:40:00;14.60;99.90
20690;DHT22;10504;48.762;8.996;2022-09-09T05:42:29;14.60;99.90
20690;DHT22;10504;48.762;8.996;2022-09-09T05:44:56;14.60;99.90
20690;DHT22;10504;48.762;8.996;2022-09-09T05:47:21;14.60;99.90
20690;DHT22;10504;48.762;8.996;2022-09-09T05:49:47;14.60;99.90
20690;DHT22;10504;48.762;8.996;2022-09-09T05:52:13;14.70;99.90
20690;DHT22;10504;48.762;8.996;2022-09-09T05:54:39;14.70;99.90
20690;DHT22;10504;48.762;8.996;2022-09-09T05:57:05;14.70;99.90
20690;DHT22;10504;48.762;8.996;2022-09-09T05:59:31;14.70;99.90
20690;DHT22;10504;48.762;8.996;2022-09-09T06:01:57;14.70;99.90
20690;DHT22;10504;48.762;8.996;2022-09-09T06:04:23;14.80;99.90
20690;DHT22;10504;48.762;8.996;2022-09-09T06:06:49;14.80;99.90
20690;DHT22;10504;48.762;8.996;2022-09-09T06:09:15;14.80;99.90
20690;DHT22;10504;48.762;8.996;2022-09-09T06:11:41;14.80;99.90
20690;DHT22;10504;48.762;8.996;2022-09-09T06:14:07;14.90;99.90
20690;DHT22;10504;48.762;8.996;2022-09-09T06:16:33;14.90;99.90
20690;DHT22;10504;48.762;8.996;2022-09-09T06:19:00;14.90;99.90
20690;DHT22;10504;48.762;8.996;2022-09-09T06:21:31;14.90;99.90
20690;DHT22;10504;48.762;8.996;2022-09-09T06:23:58;14.90;99.90
20690;DHT22;10504;48.762;8.996;2022-09-09T06:26:29;14.90;99.90
20690;DHT22;10504;48.762;8.996;2022-09-09T06:28:56;15.00;99.90
20690;DHT22;10504;48.762;8.996;2022-09-09T06:31:25;15.00;99.90
20690;DHT22;10504;48.762;8.996;2022-09-09T06:33:52;15.00;99.90
20690;DHT22;10504;48.762;8.996;2022-09-09T06:36:21;15.00;99.90
20690;DHT22;10504;48.762;8.996;2022-09-09T06:38:47;15.00;99.90
20690;DHT22;10504;48.762;8.996;2022-09-09T06:41:15;15.10;99.90
20690;DHT22;10504;48.762;8.996;2022-09-09T06:43:41;15.10;99.90
20690;DHT22;10504;48.762;8.996;2022-09-09T06:46:20;15.20;99.90
20690;DHT22;10504;48.762;8.996;2022-09-09T06:48:47;15.20;99.90
20690;DHT22;10504;48.762;8.996;2022-09-09T06:53:39;15.20;99.90
20690;DHT22;10504;48.762;8.996;2022-09-09T06:58:39;15.30;99.90
20690;DHT22;10504;48.762;8.996;2022-09-09T07:01:08;15.30;99.90
20690;DHT22;10504;48.762;8.996;2022-09-09T07:03:34;15.30;99.90
20690;DHT22;10504;48.762;8.996;2022-09-09T07:06:00;15.30;99.90
20690;DHT22;10504;48.762;8.996;2022-09-09T07:08:27;15.30;99.90
20690;DHT22;10504;48.762;8.996;2022-09-09T07:10:53;15.30;99.90
20690;DHT22;10504;48.762;8.996;2022-09-09T07:13:28;15.30;99.90
20690;DHT22;10504;48.762;8.996;2022-09-09T07:15:54;15.30;99.90
20690;DHT22;10504;48.762;8.996;2022-09-09T07:18:20;15.40;99.90
20690;DHT22;10504;48.762;8.996;2022-09-09T07:20:55;15.50;99.90
20690;DHT22;10504;48.762;8.996;2022-09-09T07:23:22;15.60;99.90
20690;DHT22;10504;48.762;8.996;2022-09-09T07:25:48;15.60;99.90
20690;DHT22;10504;48.762;8.996;2022-09-09T07:28:14;15.70;99.90
20690;DHT22;10504;48.762;8.996;2022-09-09T07:30:40;15.80;99.90
20690;DHT22;10504;48.762;8.996;2022-09-09T07:33:06;15.90;99.90
20690;DHT22;10504;48.762;8.996;2022-09-09T07:35:32;16.00;99.90
20690;DHT22;10504;48.762;8.996;2022-09-09T07:37:58;16.00;99.90
20690;DHT22;10504;48.762;8.996;2022-09-09T07:40:25;16.10;99.90
20690;DHT22;10504;48.762;8.996;2022-09-09T07:42:51;16.10;99.90
20690;DHT22;10504;48.762;8.996;2022-09-09T07:45:17;16.10;99.90
20690;DHT22;10504;48.762;8.996;2022-09-09T07:47:42;16.10;99.90
20690;DHT22;10504;48.762;8.996;2022-09-09T07:50:10;16.20;99.90
20690;DHT22;10504;48.762;8.996;2022-09-09T07:52:36;16.20;99.90
20690;DHT22;10504;48.762;8.996;2022-09-09T07:55:03;16.30;99.90
20690;DHT22;10504;48.762;8.996;2022-09-09T07:57:30;16.30;99.90
20690;DHT22;10504;48.762;8.996;2022-09-09T07:59:56;16.30;99.90
20690;DHT22;10504;48.762;8.996;2022-09-09T08:02:23;16.30;99.90
20690;DHT22;10504;48.762;8.996;2022-09-09T08:04:50;16.30;99.90
20690;DHT22;10504;48.762;8.996;2022-09-09T08:07:17;16.30;99.90
20690;DHT22;10504;48.762;8.996;2022-09-09T08:09:43;16.30;99.90
20690;DHT22;10504;48.762;8.996;2022-09-09T08:12:09;16.30;99.90
20690;DHT22;10504;48.762;8.996;2022-09-09T08:14:36;16.30;99.90
20690;DHT22;10504;48.762;8.996;2022-09-09T08:17:02;16.40;99.90
20690;DHT22;10504;48.762;8.996;2022-09-09T08:19:28;16.40;99.90
20690;DHT22;10504;48.762;8.996;2022-09-09T08:21:59;16.50;99.90
20690;DHT22;10504;48.762;8.996;2022-09-09T08:24:27;16.60;99.90
20690;DHT22;10504;48.762;8.996;2022-09-09T08:26:52;16.70;99.90
20690;DHT22;10504;48.762;8.996;2022-09-09T08:29:19;16.70;99.90
20690;DHT22;10504;48.762;8.996;2022-09-09T08:31:47;16.70;99.90
20690;DHT22;10504;48.762;8.996;2022-09-09T08:34:14;16.70;99.90
20690;DHT22;10504;48.762;8.996;2022-09-09T08:36:42;16.70;99.90
20690;DHT22;10504;48.762;8.996;2022-09-09T08:39:10;16.70;99.90
20690;DHT22;10504;48.762;8.996;2022-09-09T08:41:54;16.80;99.90
20690;DHT22;10504;48.762;8.996;2022-09-09T08:44:37;16.80;99.90
20690;DHT22;10504;48.762;8.996;2022-09-09T08:52:21;16.90;99.90
20690;DHT22;10504;48.762;8.996;2022-09-09T08:54:48;16.90;99.90
20690;DHT22;10504;48.762;8.996;2022-09-09T08:57:24;17.00;99.90
20690;DHT22;10504;48.762;8.996;2022-09-09T08:59:52;17.00;99.90
20690;DHT22;10504;48.762;8.996;2022-09-09T09:05:23;17.00;99.90
20690;DHT22;10504;48.762;8.996;2022-09-09T09:08:06;17.00;99.90
20690;DHT22;10504;48.762;8.996;2022-09-09T09:10:51;16.80;99.90
20690;DHT22;10504;48.762;8.996;2022-09-09T09:15:50;16.40;99.90
20690;DHT22;10504;48.762;8.996;2022-09-09T09:18:18;16.30;99.90
20690;DHT22;10504;48.762;8.996;2022-09-09T09:20:58;16.30;99.90
20690;DHT22;10504;48.762;8.996;2022-09-09T09:23:38;16.20;99.90
20690;DHT22;10504;48.762;8.996;2022-09-09T09:26:09;16.20;99.90
20690;DHT22;10504;48.762;8.996;2022-09-09T09:28:36;16.20;99.90
20690;DHT22;10504;48.762;8.996;2022-09-09T09:31:06;16.20;99.90
20690;DHT22;10504;48.762;8.996;2022-09-09T09:33:46;16.20;99.90
20690;DHT22;10504;48.762;8.996;2022-09-09T09:36:12;16.20;99.90
20690;DHT22;10504;48.762;8.996;2022-09-09T09:38:58;16.20;99.90
20690;DHT22;10504;48.762;8.996;2022-09-09T09:44:05;16.30;99.90
20690;DHT22;10504;48.762;8.996;2022-09-09T09:46:31;16.30;99.90
20690;DHT22;10504;48.762;8.996;2022-09-09T09:49:02;16.40;99.90
20690;DHT22;10504;48.762;8.996;2022-09-09T09:51:30;16.40;99.90
20690;DHT22;10504;48.762;8.996;2022-09-09T09:56:40;16.60;99.90
20690;DHT22;10504;48.762;8.996;2022-09-09T09:59:37;16.70;99.90
20690;DHT22;10504;48.762;8.996;2022-09-09T10:04:46;16.90;99.90
20690;DHT22;10504;48.762;8.996;2022-09-09T10:07:20;17.00;99.90
20690;DHT22;10504;48.762;8.996;2022-09-09T10:09:53;17.10;99.90
20690;DHT22;10504;48.762;8.996;2022-09-09T10:18:00;17.30;99.90
20690;DHT22;10504;48.762;8.996;2022-09-09T10:20:35;17.40;99.90
20690;DHT22;10504;48.762;8.996;2022-09-09T10:23:15;17.50;99.90
20690;DHT22;10504;48.762;8.996;2022-09-09T10:33:27;18.10;99.90
20690;DHT22;10504;48.762;8.996;2022-09-09T10:36:12;18.10;99.90
20690;DHT22;10504;48.762;8.996;2022-09-09T10:38:40;18.30;99.90
20690;DHT22;10504;48.762;8.996;2022-09-09T10:49:45;18.70;99.90
20690;DHT22;10504;48.762;8.996;2022-09-09T10:52:40;18.90;99.90
20690;DHT22;10504;48.762;8.996;2022-09-09T10:55:20;18.80;99.90
20690;DHT22;10504;48.762;8.996;2022-09-09T10:57:52;18.70;99.90
20690;DHT22;10504;48.762;8.996;2022-09-09T11:00:24;18.40;99.90
20690;DHT22;10504;48.762;8.996;2022-09-09T11:02:58;18.30;99.90
20690;DHT22;10504;48.762;8.996;2022-09-09T11:05:35;18.20;99.90
20690;DHT22;10504;48.762;8.996;2022-09-09T11:08:11;18.00;99.90
20690;DHT22;10504;48.762;8.996;2022-09-09T11:13:57;17.80;99.90
20690;DHT22;10504;48.762;8.996;2022-09-09T11:19:04;17.70;99.90
20690;DHT22;10504;48.762;8.996;2022-09-09T11:21:45;17.40;99.90
20690;DHT22;10504;48.762;8.996;2022-09-09T11:24:22;17.10;99.90
20690;DHT22;10504;48.762;8.996;2022-09-09T11:27:09;16.80;99.90
20690;DHT22;10504;48.762;8.996;2022-09-09T11:41:05;15.60;99.90
20690;DHT22;10504;48.762;8.996;2022-09-09T11:46:09;15.40;99.90
20690;DHT22;10504;48.762;8.996;2022-09-09T11:48:41;15.30;99.90
20690;DHT22;10504;48.762;8.996;2022-09-09T11:51:29;15.30;99.90
20690;DHT22;10504;48.762;8.996;2022-09-09T11:53:56;15.30;99.90
20690;DHT22;10504;48.762;8.996;2022-09-09T11:56:53;15.40;99.90
20690;DHT22;10504;48.762;8.996;2022-09-09T11:59:22;15.60;99.90
20690;DHT22;10504;48.762;8.996;2022-09-09T12:02:08;15.70;99.90
20690;DHT22;10504;48.762;8.996;2022-09-09T12:04:44;15.90;99.90
20690;DHT22;10504;48.762;8.996;2022-09-09T12:17:42;16.40;99.90
20690;DHT22;10504;48.762;8.996;2022-09-09T12:28:01;16.80;99.90
20690;DHT22;10504;48.762;8.996;2022-09-09T12:31:17;17.00;99.90
20690;DHT22;10504;48.762;8.996;2022-09-09T12:33:21;17.20;99.90
20690;DHT22;10504;48.762;8.996;2022-09-09T12:35:55;17.40;99.90
20690;DHT22;10504;48.762;8.996;2022-09-09T12:38:32;17.60;99.90
20690;DHT22;10504;48.762;8.996;2022-09-09T12:40:58;17.70;99.90
20690;DHT22;10504;48.762;8.996;2022-09-09T12:43:26;17.90;99.90
20690;DHT22;10504;48.762;8.996;2022-09-09T12:46:03;18.10;99.90
20690;DHT22;10504;48.762;8.996;2022-09-09T12:48:38;18.30;99.90
20690;DHT22;10504;48.762;8.996;2022-09-09T12:51:16;18.50;99.90
20690;DHT22;10504;48.762;8.996;2022-09-09T12:53:42;18.70;99.90
20690;DHT22;10504;48.762;8.996;2022-09-09T12:56:27;18.80;99.90
20690;DHT22;10504;48.762;8.996;2022-09-09T12:58:56;18.90;99.90
20690;DHT22;10504;48.762;8.996;2022-09-09T13:01:29;19.10;99.90
20690;DHT22;10504;48.762;8.996;2022-09-09T13:03:56;19.20;99.90
20690;DHT22;10504;48.762;8.996;2022-09-09T13:06:25;19.40;99.90
20690;DHT22;10504;48.762;8.996;2022-09-09T13:08:52;19.50;99.90
20690;DHT22;10504;48.762;8.996;2022-09-09T13:11:40;19.70;99.90
20690;DHT22;10504;48.762;8.996;2022-09-09T13:14:23;19.80;99.90
20690;DHT22;10504;48.762;8.996;2022-09-09T13:17:00;19.80;99.90
20690;DHT22;10504;48.762;8.996;2022-09-09T13:19:32;20.00;99.90
20690;DHT22;10504;48.762;8.996;2022-09-09T13:22:00;19.90;99.90
20690;DHT22;10504;48.762;8.996;2022-09-09T13:24:33;20.00;99.90
20690;DHT22;10504;48.762;8.996;2022-09-09T13:27:03;20.00;99.90
20690;DHT22;10504;48.762;8.996;2022-09-09T13:29:30;20.20;99.90
20690;DHT22;10504;48.762;8.996;2022-09-09T13:32:16;20.40;99.90
20690;DHT22;10504;48.762;8.996;2022-09-09T13:34:51;20.50;99.90
20690;DHT22;10504;48.762;8.996;2022-09-09T13:37:35;20.50;99.90
20690;DHT22;10504;48.762;8.996;2022-09-09T13:40:03;20.50;99.90
20690;DHT22;10504;48.762;8.996;2022-09-09T13:42:33;20.40;99.90
20690;DHT22;10504;48.762;8.996;2022-09-09T13:45:03;20.20;99.90
20690;DHT22;10504;48.762;8.996;2022-09-09T13:47:34;20.00;99.90
20690;DHT22;10504;48.762;8.996;2022-09-09T13:50:35;19.90;99.90
20690;DHT22;10504;48.762;8.996;2022-09-09T13:53:01;19.90;99.90
20690;DHT22;10504;48.762;8.996;2022-09-09T13:55:28;19.90;99.90
20690;DHT22;10504;48.762;8.996;2022-09-09T13:57:56;20.10;99.90
20690;DHT22;10504;48.762;8.996;2022-09-09T14:00:23;20.10;99.90
20690;DHT22;10504;48.762;8.996;2022-09-09T14:02:50;20.30;99.90
20690;DHT22;10504;48.762;8.996;2022-09-09T14:05:17;20.30;99.90
20690;DHT22;10504;48.762;8.996;2022-09-09T14:07:43;20.30;99.90
20690;DHT22;10504;48.762;8.996;2022-09-09T14:10:11;20.40;99.90
20690;DHT22;10504;48.762;8.996;2022-09-09T14:12:36;20.40;99.90
20690;DHT22;10504;48.762;8.996;2022-09-09T14:15:04;20.30;99.90
20690;DHT22;10504;48.762;8.996;2022-09-09T14:17:30;20.40;99.90
20690;DHT22;10504;48.762;8.996;2022-09-09T14:19:57;20.30;99.90
20690;DHT22;10504;48.762;8.996;2022-09-09T14:22:23;20.20;99.90
20690;DHT22;10504;48.762;8.996;2022-09-09T14:24:49;20.20;99.90
20690;DHT22;10504;48.762;8.996;2022-09-09T14:27:15;20.30;99.90
20690;DHT22;10504;48.762;8.996;2022-09-09T14:29:41;20.30;99.90
20690;DHT22;10504;48.762;8.996;2022-09-09T14:32:09;20.40;99.90
20690;DHT22;10504;48.762;8.996;2022-09-09T14:34:34;20.50;99.90
20690;DHT22;10504;48.762;8.996;2022-09-09T14:37:00;20.50;99.90
20690;DHT22;10504;48.762;8.996;2022-09-09T14:39:27;20.60;99.90
20690;DHT22;10504;48.762;8.996;2022-09-09T14:41:52;20.60;99.90
20690;DHT22;10504;48.762;8.996;2022-09-09T14:44:18;20.50;99.90
20690;DHT22;10504;48.762;8.996;2022-09-09T14:46:44;20.20;99.90
20690;DHT22;10504;48.762;8.996;2022-09-09T14:49:10;20.00;99.90
20690;DHT22;10504;48.762;8.996;2022-09-09T14:51:36;19.80;99.90
20690;DHT22;10504;48.762;8.996;2022-09-09T14:54:02;19.60;99.90
20690;DHT22;10504;48.762;8.996;2022-09-09T14:56:30;19.60;99.90
20690;DHT22;10504;48.762;8.996;2022-09-09T14:58:58;19.60;99.90
20690;DHT22;10504;48.762;8.996;2022-09-09T15:01:26;19.50;99.90
20690;DHT22;10504;48.762;8.996;2022-09-09T15:03:54;19.40;99.90
20690;DHT22;10504;48.762;8.996;2022-09-09T15:06:21;19.30;99.90
20690;DHT22;10504;48.762;8.996;2022-09-09T15:08:49;19.20;99.90
20690;DHT22;10504;48.762;8.996;2022-09-09T15:11:15;19.10;99.90
20690;DHT22;10504;48.762;8.996;2022-09-09T15:13:42;19.00;99.90
20690;DHT22;10504;48.762;8.996;2022-09-09T15:16:18;19.00;99.90
20690;DHT22;10504;48.762;8.996;2022-09-09T15:18:45;19.00;99.90
20690;DHT22;10504;48.762;8.996;2022-09-09T15:21:14;18.90;99.90
20690;DHT22;10504;48.762;8.996;2022-09-09T15:23:40;19.00;99.90
20690;DHT22;10504;48.762;8.996;2022-09-09T15:26:06;19.20;99.90
20690;DHT22;10504;48.762;8.996;2022-09-09T15:28:32;19.40;99.90
20690;DHT22;10504;48.762;8.996;2022-09-09T15:33:32;19.80;99.90
20690;DHT22;10504;48.762;8.996;2022-09-09T15:35:59;19.70;99.90
20690;DHT22;10504;48.762;8.996;2022-09-09T15:38:24;19.60;99.90
20690;DHT22;10504;48.762;8.996;2022-09-09T15:40:54;19.40;99.90
20690;DHT22;10504;48.762;8.996;2022-09-09T15:43:21;19.30;99.90
20690;DHT22;10504;48.762;8.996;2022-09-09T15:45:52;19.20;99.90
20690;DHT22;10504;48.762;8.996;2022-09-09T15:48:30;19.00;99.90
20690;DHT22;10504;48.762;8.996;2022-09-09T15:51:04;18.90;99.90
20690;DHT22;10504;48.762;8.996;2022-09-09T15:53:31;18.80;99.90
20690;DHT22;10504;48.762;8.996;2022-09-09T15:55:59;18.70;99.90
20690;DHT22;10504;48.762;8.996;2022-09-09T15:58:29;18.60;99.90
20690;DHT22;10504;48.762;8.996;2022-09-09T16:01:10;18.60;99.90
20690;DHT22;10504;48.762;8.996;2022-09-09T16:03:39;18.50;99.90
20690;DHT22;10504;48.762;8.996;2022-09-09T16:06:05;18.40;99.90
20690;DHT22;10504;48.762;8.996;2022-09-09T16:08:44;18.40;99.90
20690;DHT22;10504;48.762;8.996;2022-09-09T16:11:37;18.40;99.90
20690;DHT22;10504;48.762;8.996;2022-09-09T16:14:04;18.40;99.90
20690;DHT22;10504;48.762;8.996;2022-09-09T16:16:30;18.30;99.90
20690;DHT22;10504;48.762;8.996;2022-09-09T16:19:02;18.20;99.90
20690;DHT22;10504;48.762;8.996;2022-09-09T16:21:33;18.20;99.90
20690;DHT22;10504;48.762;8.996;2022-09-09T16:24:02;18.20;99.90
20690;DHT22;10504;48.762;8.996;2022-09-09T16:26:29;18.10;99.90
20690;DHT22;10504;48.762;8.996;2022-09-09T16:28:55;18.00;99.90
20690;DHT22;10504;48.762;8.996;2022-09-09T16:31:23;17.90;99.90
20690;DHT22;10504;48.762;8.996;2022-09-09T16:33:49;17.80;99.90
20690;DHT22;10504;48.762;8.996;2022-09-09T16:36:18;17.70;99.90
20690;DHT22;10504;48.762;8.996;2022-09-09T16:38:44;17.60;99.90
20690;DHT22;10504;48.762;8.996;2022-09-09T16:41:11;17.40;99.90
20690;DHT22;10504;48.762;8.996;2022-09-09T16:43:40;16.90;99.90
20690;DHT22;10504;48.762;8.996;2022-09-09T16:46:16;16.50;99.90
20690;DHT22;10504;48.762;8.996;2022-09-09T16:48:44;16.00;99.90
20690;DHT22;10504;48.762;8.996;2022-09-09T16:51:18;15.80;99.90
20690;DHT22;10504;48.762;8.996;2022-09-09T16:53:45;15.60;99.90
20690;DHT22;10504;48.762;8.996;2022-09-09T16:56:23;15.50;99.90
20690;DHT22;10504;48.762;8.996;2022-09-09T16:58:54;15.40;99.90
20690;DHT22;10504;48.762;8.996;2022-09-09T17:01:21;15.30;99.90
20690;DHT22;10504;48.762;8.996;2022-09-09T17:03:47;15.40;99.90
20690;DHT22;10504;48.762;8.996;2022-09-09T17:06:14;15.50;99.90
20690;DHT22;10504;48.762;8.996;2022-09-09T17:08:41;15.50;99.90
20690;DHT22;10504;48.762;8.996;2022-09-09T17:11:17;15.50;99.90
20690;DHT22;10504;48.762;8.996;2022-09-09T17:13:45;15.60;99.90
20690;DHT22;10504;48.762;8.996;2022-09-09T17:16:12;15.60;99.90
20690;DHT22;10504;48.762;8.996;2022-09-09T17:18:38;15.60;99.90
20690;DHT22;10504;48.762;8.996;2022-09-09T17:21:08;15.60;99.90
20690;DHT22;10504;48.762;8.996;2022-09-09T17:23:35;15.60;99.90
20690;DHT22;10504;48.762;8.996;2022-09-09T17:26:07;15.50;99.90
20690;DHT22;10504;48.762;8.996;2022-09-09T17:28:34;15.50;99.90
20690;DHT22;10504;48.762;8.996;2022-09-09T17:31:00;15.40;99.90
20690;DHT22;10504;48.762;8.996;2022-09-09T17:33:30;15.40;99.90
20690;DHT22;10504;48.762;8.996;2022-09-09T17:36:01;15.40;99.90
20690;DHT22;10504;48.762;8.996;2022-09-09T17:38:28;15.40;99.90
20690;DHT22;10504;48.762;8.996;2022-09-09T17:41:10;15.40;99.90
20690;DHT22;10504;48.762;8.996;2022-09-09T17:43:37;15.40;99.90
20690;DHT22;10504;48.762;8.996;2022-09-09T17:46:08;15.40;99.90
20690;DHT22;10504;48.762;8.996;2022-09-09T17:48:34;15.40;99.90
20690;DHT22;10504;48.762;8.996;2022-09-09T17:51:06;15.40;99.90
20690;DHT22;10504;48.762;8.996;2022-09-09T17:53:40;15.40;99.90
20690;DHT22;10504;48.762;8.996;2022-09-09T17:56:09;15.40;99.90